KMKGKIGQ

Guest
Details From KMKG - MUSKEGON CO
To KIGQ - LANSING MUNI
Flight Number -
Tags generated
Created
Modified
Stats Distance 114 nm / 211 km
Max Altitude 9,200 ft / 2,804 m
Waypoints 3
Social Downloads 0
Likes 0
Share VATSIM

Download

Looking for another format? Having issues loading an existing format? Contact us
Advertisement - Login to hide

Notes

Basic altitude profile: - Ascent Rate: 2500ft/min - Ascent Speed: 80kts - Cruise Altitude: 35000ft - Cruise Speed: 100kts - Descent Rate: 1500ft/min - Descent Speed: 80kts Options: - Use NATs: yes - Use PACOTS: yes - Use low airways: yes - Use high airways: yes

Route

KMKG MINCE KIGQ

ID Type Via Altitude Latitude Longitude Leg Dist Tot Dist Heading (true) Name
O KMKG APT - 0 ft / 0 m 43.17002˚ -86.23822˚ - 0 nm - MUSKEGON CO
MINCE FIX - 9,200 ft / 2,804 m 42.16233˚ -87.06419˚ 70 nm 70 nm 211° / 211° -
O KIGQ APT - 0 ft / 0 m 41.53529˚ -87.52969˚ 43 nm 113 nm 209° / 209° LANSING MUNI

Altitude Profile

Advertisement - Login to hide

KMKG

Details ICAO KMKG (MKG)
Name MUSKEGON CO
Region United States
Timezone America/Detroit (UTC-5.0)
Stats Elevation 628 ft / 191 m (AMSL)
Location 43.170017° -86.238221°
Runways 3
Magnetic Variation 5.262° W

METAR

KMKG 171955Z 11010KT 5SM HZ OVC011 M01/M04 A3003 RMK AO2 SLP178 T10111044

Decode

TAF

TAF KMKG 171744Z 1718/1818 11010KT 5SM BR OVC007 FM171900 11007KT 5SM BR OVC009 FM172100 13006KT P6SM BKN015 FM180400 20006KT 4SM -DZ BR OVC007

Decode

Departure Runways

ID Width Length Bearing (true) Bearing (mag) Surface Threshold Offset Overrun Length
06 151 ft / 46 m 6,492 ft / 1,979 m 56.28° 61.54° Asphalt 0 ft / 0 m 0 ft / 0 m
14 151 ft / 46 m 4,999 ft / 1,524 m 137.49° 142.75° Asphalt 289 ft / 88 m 0 ft / 0 m
18 98 ft / 30 m 3,153 ft / 961 m 179.66° 184.92° Asphalt 0 ft / 0 m 0 ft / 0 m
24 151 ft / 46 m 6,492 ft / 1,979 m 236.29° 241.55° Asphalt 0 ft / 0 m 0 ft / 0 m
32 151 ft / 46 m 4,999 ft / 1,524 m 317.49° 322.75° Asphalt 0 ft / 0 m 0 ft / 0 m
36 98 ft / 30 m 3,153 ft / 961 m 359.66° 4.92° Asphalt 0 ft / 0 m 0 ft / 0 m

KIGQ

Details ICAO KIGQ (IGQ)
Name LANSING MUNI
Region United States
Timezone America/Chicago (UTC-6.0)
Stats Elevation 620 ft / 189 m (AMSL)
Location 41.535286° -87.529690°
Runways 2
Magnetic Variation 3.960° W

METAR

KIGQ 171955Z AUTO 23008G14KT 10SM SCT120 09/01 A2999 RMK AO2 T00860010

Decode

TAF

Not found

Destination Runways

ID Width Length Bearing (true) Bearing (mag) Surface Threshold Offset Overrun Length
09 75 ft / 23 m 3,388 ft / 1,033 m 90.17° 94.13° Asphalt 0 ft / 0 m 0 ft / 0 m
18 75 ft / 23 m 4,008 ft / 1,222 m 180.14° 184.10° Asphalt 350 ft / 107 m 0 ft / 0 m
27 75 ft / 23 m 3,388 ft / 1,033 m 270.18° 274.14° Asphalt 0 ft / 0 m 0 ft / 0 m
36 75 ft / 23 m 4,008 ft / 1,222 m 0.14° 4.10° Asphalt 0 ft / 0 m 0 ft / 0 m